WetterOnline ( https://www.wetteronline.de )

Wetter aktuell Winterlingen

Aktuelles Wetter: Messstetten (900m)

6-stündlich | Neueste Meldungen
Ortszeit Temperatur Wetter
Di, 18.06. 2:00 11.7° C leicht bewölkt
Mo, 17.06. 20:00 19.2° C wolkenlos
Mo, 17.06. 14:00 19.7° C fast wolkenlos
Mo, 17.06. 8:00 13.4° C wolkenlos
Mo, 17.06. 2:00 9.2° C wolkenlos
So, 16.06. 20:00 16.6° C wolkenlos
So, 16.06. 14:00 14.4° C bewölkt
So, 16.06. 8:00 10.7° C Sprühregen
Ortszeit Temperatur Wetter
Di, 18.06. 3:00 11.6° C wolkig
Di, 18.06. 2:50 11.6° C wolkig
Di, 18.06. 2:40 11.6° C wolkig
Di, 18.06. 2:30 12.2° C wolkig
Di, 18.06. 2:20 12.2° C wolkig
Di, 18.06. 2:10 11.8° C leicht bewölkt
Di, 18.06. 2:00 11.7° C leicht bewölkt
Di, 18.06. 1:30 12.1° C fast wolkenlos
Di, 18.06. 1:00 12.4° C wolkenlos
Di, 18.06. 0:30 12.5° C wolkenlos
Di, 18.06. 0:00 12.7° C leicht bewölkt
Ortszeit Relative Feuchte Sichtweite
Di, 18.06. 2:00 92% 24 km
Mo, 17.06. 20:00 60% 45 km
Mo, 17.06. 14:00 57% 26 km
Mo, 17.06. 8:00 74% 30 km
Mo, 17.06. 2:00 95% 16 km
So, 16.06. 20:00 60% 65 km
So, 16.06. 14:00 72% 70 km
So, 16.06. 8:00 96% 21 km
Ortszeit Relative Feuchte Sichtweite
Di, 18.06. 3:00 93% 21 km
Di, 18.06. 2:50 93% -
Di, 18.06. 2:40 92% -
Di, 18.06. 2:30 92% 26 km
Di, 18.06. 2:20 92% -
Di, 18.06. 2:10 92% -
Di, 18.06. 2:00 92% 24 km
Di, 18.06. 1:30 92% 28 km
Di, 18.06. 1:00 90% 27 km
Di, 18.06. 0:30 90% 30 km
Di, 18.06. 0:00 88% 35 km
Ortszeit Niederschlagsmenge Niederschlagsart
Di, 18.06. 2:00 0.0 l/m2 in 6 Std. -
Mo, 17.06. 20:00 0.0 l/m2 in 12 Std. -
Mo, 17.06. 14:00 0.0 l/m2 in 6 Std. -
Mo, 17.06. 8:00 0.0 l/m2 in 12 Std. -
Mo, 17.06. 2:00 0.0 l/m2 in 6 Std. -
So, 16.06. 20:00 0.1 l/m2 in 12 Std. -
So, 16.06. 14:00 0.1 l/m2 in 6 Std. Sprühregen
So, 16.06. 8:00 13 l/m2 in 12 Std. Regen
Ortszeit Niederschlagsmenge Niederschlagsart
Di, 18.06. 3:00 0.0 l/m2 in 1 Std. -
Di, 18.06. 2:50 keine Meldung -
Di, 18.06. 2:40 keine Meldung -
Di, 18.06. 2:30 0.0 l/m2 in 1 Std. -
Di, 18.06. 2:20 keine Meldung -
Di, 18.06. 2:10 keine Meldung -
Di, 18.06. 2:00 0.0 l/m2 in 1 Std. -
Di, 18.06. 1:30 0.0 l/m2 in 1 Std. -
Di, 18.06. 1:00 0.0 l/m2 in 1 Std. -
Di, 18.06. 0:30 0.0 l/m2 in 1 Std. -
Di, 18.06. 0:00 0.0 l/m2 in 1 Std. -
Ortszeit Stärke Spitze Richtung
km/h Bft. km/h Grad Sektor
Di, 18.06. 2:00 7 2 18 110° O
Mo, 17.06. 20:00 14 3 29 80° O
Mo, 17.06. 14:00 14 3 29 90° O
Mo, 17.06. 8:00 17 3 22 80° O
Mo, 17.06. 2:00 7 2 11 110° O
So, 16.06. 20:00 4 1 22 360° N
So, 16.06. 14:00 9 2 20 310° NW
So, 16.06. 8:00 9 2 19 330° NW
Ortszeit Stärke Spitze Richtung
km/h Bft. km/h Grad Sektor
Di, 18.06. 3:00 7 2 7 110° O
Di, 18.06. 2:50 7 2 - 110° O
Di, 18.06. 2:40 7 2 - 110° O
Di, 18.06. 2:30 7 2 7 110° O
Di, 18.06. 2:20 7 2 - 110° O
Di, 18.06. 2:10 7 2 - 110° O
Di, 18.06. 2:00 7 2 11 110° O
Di, 18.06. 1:30 7 2 11 100° O
Di, 18.06. 1:00 7 2 11 100° O
Di, 18.06. 0:30 7 2 11 110° O
Di, 18.06. 0:00 7 2 11 120° SO
Ortszeit Untergrenze Bedeckung Gattung
total tief tief mittel hoch
Di, 18.06. 2:00 9000 m 5/8 0/8 - - -
Mo, 17.06. 20:00 - 0/8 0/8 - - -
Mo, 17.06. 14:00 1050 m 1/8 1/8 - - -
Mo, 17.06. 8:00 - 0/8 0/8 - - -
Mo, 17.06. 2:00 - 0/8 0/8 - - -
So, 16.06. 20:00 - 0/8 0/8 - - -
So, 16.06. 14:00 510 m 7/8 7/8 - - -
So, 16.06. 8:00 120 m 7/8 7/8 - - -
Ortszeit Bedeckungsgrad in Achtel und Wolkenuntergrenze
Di, 18.06. 3:00 7(9000m) 8(10500m)
Di, 18.06. 2:50 7(9000m) 8(10500m)
Di, 18.06. 2:40 8(9000m) 8(10500m)
Di, 18.06. 2:30 7(9000m)
Di, 18.06. 2:20 7(9000m)
Di, 18.06. 2:10 5(9000m) 6(10500m)
Di, 18.06. 2:00 5(9000m) 5(10500m)
Di, 18.06. 1:30 2(9000m)
Di, 18.06. 1:00 keine Wolken
Di, 18.06. 0:30 keine Wolken
Di, 18.06. 0:00 3(9000m)
Ortszeit Stationsdruck (hPa) Tendenz (hPa in 3 Std.)
Di, 18.06. 2:00 915 - 0,4
Mo, 17.06. 20:00 916 - 0,5
Mo, 17.06. 14:00 917 - 0,6
Mo, 17.06. 8:00 918 - 0,1
Mo, 17.06. 2:00 919 - 0,6
So, 16.06. 20:00 919 - 0,1
So, 16.06. 14:00 920 + 0,4
So, 16.06. 8:00 918 + 0,7
Ortszeit Stationsdruck (hPa) Tendenz (hPa in 3 Std.)
Di, 18.06. 3:00 915 - 0,8
Di, 18.06. 2:50 915 keine Meldung
Di, 18.06. 2:40 915 keine Meldung
Di, 18.06. 2:30 915 - 0,6
Di, 18.06. 2:20 915 keine Meldung
Di, 18.06. 2:10 915 keine Meldung
Di, 18.06. 2:00 915 - 0,4
Di, 18.06. 1:30 916 - 0,3
Di, 18.06. 1:00 916 - 0,1
Di, 18.06. 0:30 916 - 0,1
Di, 18.06. 0:00 916 0,0
Ortszeit Schneehöhe (cm)
Di, 18.06. 2:00 -
Mo, 17.06. 20:00 -
Mo, 17.06. 14:00 -
Mo, 17.06. 8:00 -
Mo, 17.06. 2:00 -
So, 16.06. 20:00 -
So, 16.06. 14:00 -
So, 16.06. 8:00 -
Ortszeit Schneehöhe (cm)
Di, 18.06. 3:00 -
Di, 18.06. 2:50 -
Di, 18.06. 2:40 -
Di, 18.06. 2:30 -
Di, 18.06. 2:20 -
Di, 18.06. 2:10 -
Di, 18.06. 2:00 -
Di, 18.06. 1:30 -
Di, 18.06. 1:00 -
Di, 18.06. 0:30 -
Di, 18.06. 0:00 -
Link zu dieser Seite / Seite empfehlen

Das Wetter in ...